sensor_id;sensor_type;location;lat;lon;timestamp;P1;durP1;ratioP1;P2;durP2;ratioP2
38312;SDS011;24114;52.260;6.714;2023-12-07T00:00:50;19.10;;;14.50;;
38312;SDS011;24114;52.260;6.714;2023-12-07T00:03:18;20.40;;;14.57;;
38312;SDS011;24114;52.260;6.714;2023-12-07T00:05:46;21.42;;;15.20;;
38312;SDS011;24114;52.260;6.714;2023-12-07T00:08:14;19.73;;;14.18;;
38312;SDS011;24114;52.260;6.714;2023-12-07T00:10:43;17.83;;;13.85;;
38312;SDS011;24114;52.260;6.714;2023-12-07T00:13:11;19.35;;;14.55;;
38312;SDS011;24114;52.260;6.714;2023-12-07T00:15:39;19.60;;;14.30;;
38312;SDS011;24114;52.260;6.714;2023-12-07T00:18:07;18.98;;;13.98;;
38312;SDS011;24114;52.260;6.714;2023-12-07T00:20:35;20.27;;;14.47;;
38312;SDS011;24114;52.260;6.714;2023-12-07T00:23:03;19.80;;;14.85;;
38312;SDS011;24114;52.260;6.714;2023-12-07T00:25:31;21.10;;;14.88;;
38312;SDS011;24114;52.260;6.714;2023-12-07T00:28:00;18.27;;;14.07;;
38312;SDS011;24114;52.260;6.714;2023-12-07T00:30:29;18.17;;;13.98;;
38312;SDS011;24114;52.260;6.714;2023-12-07T00:32:57;18.83;;;14.18;;
38312;SDS011;24114;52.260;6.714;2023-12-07T00:35:25;17.73;;;13.77;;
38312;SDS011;24114;52.260;6.714;2023-12-07T00:37:55;18.23;;;13.63;;
38312;SDS011;24114;52.260;6.714;2023-12-07T00:40:23;17.70;;;13.77;;
38312;SDS011;24114;52.260;6.714;2023-12-07T00:42:51;18.27;;;14.23;;
38312;SDS011;24114;52.260;6.714;2023-12-07T00:45:20;18.30;;;13.70;;
38312;SDS011;24114;52.260;6.714;2023-12-07T00:47:48;17.85;;;13.85;;
38312;SDS011;24114;52.260;6.714;2023-12-07T00:50:16;18.10;;;14.02;;
38312;SDS011;24114;52.260;6.714;2023-12-07T00:52:44;17.83;;;13.77;;
38312;SDS011;24114;52.260;6.714;2023-12-07T00:55:12;20.23;;;14.53;;
38312;SDS011;24114;52.260;6.714;2023-12-07T00:57:40;21.77;;;15.27;;
38312;SDS011;24114;52.260;6.714;2023-12-07T01:00:08;20.27;;;14.80;;
38312;SDS011;24114;52.260;6.714;2023-12-07T01:02:39;19.13;;;14.75;;
38312;SDS011;24114;52.260;6.714;2023-12-07T01:05:07;19.60;;;14.70;;
38312;SDS011;24114;52.260;6.714;2023-12-07T01:07:35;19.85;;;14.95;;
38312;SDS011;24114;52.260;6.714;2023-12-07T01:10:03;21.42;;;14.98;;
38312;SDS011;24114;52.260;6.714;2023-12-07T01:12:32;20.35;;;14.98;;
38312;SDS011;24114;52.260;6.714;2023-12-07T01:15:00;22.02;;;15.40;;
38312;SDS011;24114;52.260;6.714;2023-12-07T01:17:27;19.85;;;15.27;;
38312;SDS011;24114;52.260;6.714;2023-12-07T01:19:57;20.30;;;15.20;;
38312;SDS011;24114;52.260;6.714;2023-12-07T01:22:25;20.23;;;14.95;;
38312;SDS011;24114;52.260;6.714;2023-12-07T01:24:53;21.08;;;15.55;;
38312;SDS011;24114;52.260;6.714;2023-12-07T01:27:21;23.63;;;16.42;;
38312;SDS011;24114;52.260;6.714;2023-12-07T01:29:49;23.20;;;17.40;;
38312;SDS011;24114;52.260;6.714;2023-12-07T01:32:17;22.50;;;16.55;;
38312;SDS011;24114;52.260;6.714;2023-12-07T01:34:45;21.95;;;16.05;;
38312;SDS011;24114;52.260;6.714;2023-12-07T01:37:16;21.70;;;15.82;;
38312;SDS011;24114;52.260;6.714;2023-12-07T01:39:43;21.48;;;16.38;;
38312;SDS011;24114;52.260;6.714;2023-12-07T01:42:12;21.73;;;16.10;;
38312;SDS011;24114;52.260;6.714;2023-12-07T01:44:39;19.25;;;15.23;;
38312;SDS011;24114;52.260;6.714;2023-12-07T01:47:07;20.85;;;15.93;;
38312;SDS011;24114;52.260;6.714;2023-12-07T01:49:36;20.23;;;15.10;;
38312;SDS011;24114;52.260;6.714;2023-12-07T01:52:05;20.30;;;15.18;;
38312;SDS011;24114;52.260;6.714;2023-12-07T01:54:34;20.85;;;16.15;;
38312;SDS011;24114;52.260;6.714;2023-12-07T01:57:02;20.00;;;15.50;;
38312;SDS011;24114;52.260;6.714;2023-12-07T01:59:30;20.42;;;15.50;;
38312;SDS011;24114;52.260;6.714;2023-12-07T02:01:58;21.45;;;15.80;;
38312;SDS011;24114;52.260;6.714;2023-12-07T02:04:26;19.23;;;15.27;;
38312;SDS011;24114;52.260;6.714;2023-12-07T02:06:55;20.13;;;14.90;;
38312;SDS011;24114;52.260;6.714;2023-12-07T02:09:24;19.30;;;15.38;;
38312;SDS011;24114;52.260;6.714;2023-12-07T02:11:53;18.73;;;14.30;;
38312;SDS011;24114;52.260;6.714;2023-12-07T02:14:21;20.83;;;15.53;;
38312;SDS011;24114;52.260;6.714;2023-12-07T02:16:50;22.02;;;15.32;;
38312;SDS011;24114;52.260;6.714;2023-12-07T02:19:25;22.33;;;15.23;;
38312;SDS011;24114;52.260;6.714;2023-12-07T02:22:14;19.67;;;15.38;;
38312;SDS011;24114;52.260;6.714;2023-12-07T02:24:47;21.53;;;15.73;;
38312;SDS011;24114;52.260;6.714;2023-12-07T02:27:19;18.25;;;14.50;;
38312;SDS011;24114;52.260;6.714;2023-12-07T02:30:00;21.83;;;14.68;;
38312;SDS011;24114;52.260;6.714;2023-12-07T02:32:28;19.92;;;14.50;;
38312;SDS011;24114;52.260;6.714;2023-12-07T02:34:56;20.77;;;15.30;;
38312;SDS011;24114;52.260;6.714;2023-12-07T02:37:24;20.13;;;14.82;;
38312;SDS011;24114;52.260;6.714;2023-12-07T02:39:55;20.57;;;15.77;;
38312;SDS011;24114;52.260;6.714;2023-12-07T02:42:25;21.10;;;15.15;;
38312;SDS011;24114;52.260;6.714;2023-12-07T02:44:53;20.17;;;15.52;;
38312;SDS011;24114;52.260;6.714;2023-12-07T02:47:21;19.37;;;14.60;;
38312;SDS011;24114;52.260;6.714;2023-12-07T02:49:49;20.60;;;15.10;;
38312;SDS011;24114;52.260;6.714;2023-12-07T02:52:17;19.70;;;14.98;;
38312;SDS011;24114;52.260;6.714;2023-12-07T02:54:44;22.58;;;16.23;;
38312;SDS011;24114;52.260;6.714;2023-12-07T02:57:12;22.58;;;16.27;;
38312;SDS011;24114;52.260;6.714;2023-12-07T02:59:42;22.42;;;16.50;;
38312;SDS011;24114;52.260;6.714;2023-12-07T03:02:10;21.88;;;15.68;;
38312;SDS011;24114;52.260;6.714;2023-12-07T03:04:38;21.77;;;16.05;;
38312;SDS011;24114;52.260;6.714;2023-12-07T03:07:05;21.17;;;16.00;;
38312;SDS011;24114;52.260;6.714;2023-12-07T03:09:33;20.55;;;15.45;;
38312;SDS011;24114;52.260;6.714;2023-12-07T03:12:01;22.07;;;15.93;;
38312;SDS011;24114;52.260;6.714;2023-12-07T03:14:29;22.33;;;16.15;;
38312;SDS011;24114;52.260;6.714;2023-12-07T03:16:58;20.85;;;16.00;;
38312;SDS011;24114;52.260;6.714;2023-12-07T03:19:26;22.00;;;16.25;;
38312;SDS011;24114;52.260;6.714;2023-12-07T03:21:54;24.25;;;16.35;;
38312;SDS011;24114;52.260;6.714;2023-12-07T03:24:22;23.13;;;16.38;;
38312;SDS011;24114;52.260;6.714;2023-12-07T03:26:49;23.17;;;16.70;;
38312;SDS011;24114;52.260;6.714;2023-12-07T03:29:17;23.98;;;17.42;;
38312;SDS011;24114;52.260;6.714;2023-12-07T03:31:45;22.77;;;17.40;;
38312;SDS011;24114;52.260;6.714;2023-12-07T03:34:14;24.60;;;17.58;;
38312;SDS011;24114;52.260;6.714;2023-12-07T03:36:42;24.13;;;17.70;;
38312;SDS011;24114;52.260;6.714;2023-12-07T03:39:12;30.80;;;19.85;;
38312;SDS011;24114;52.260;6.714;2023-12-07T03:41:40;29.85;;;20.67;;
38312;SDS011;24114;52.260;6.714;2023-12-07T03:44:08;35.95;;;21.63;;
38312;SDS011;24114;52.260;6.714;2023-12-07T03:46:36;42.05;;;21.73;;
38312;SDS011;24114;52.260;6.714;2023-12-07T03:49:04;49.65;;;22.08;;
38312;SDS011;24114;52.260;6.714;2023-12-07T03:51:33;36.63;;;20.90;;
38312;SDS011;24114;52.260;6.714;2023-12-07T03:54:02;44.35;;;22.13;;
38312;SDS011;24114;52.260;6.714;2023-12-07T03:56:32;45.63;;;21.87;;
38312;SDS011;24114;52.260;6.714;2023-12-07T03:59:00;48.45;;;22.52;;
38312;SDS011;24114;52.260;6.714;2023-12-07T04:01:29;76.05;;;23.83;;
38312;SDS011;24114;52.260;6.714;2023-12-07T04:03:57;90.50;;;25.90;;
38312;SDS011;24114;52.260;6.714;2023-12-07T04:06:25;118.80;;;25.93;;
38312;SDS011;24114;52.260;6.714;2023-12-07T04:08:54;56.08;;;22.02;;
38312;SDS011;24114;52.260;6.714;2023-12-07T04:11:22;46.72;;;21.27;;
38312;SDS011;24114;52.260;6.714;2023-12-07T04:13:49;39.75;;;19.80;;
38312;SDS011;24114;52.260;6.714;2023-12-07T04:16:17;53.15;;;19.60;;
38312;SDS011;24114;52.260;6.714;2023-12-07T04:18:45;53.67;;;19.90;;
38312;SDS011;24114;52.260;6.714;2023-12-07T04:21:13;75.35;;;22.35;;
38312;SDS011;24114;52.260;6.714;2023-12-07T04:23:41;47.17;;;18.90;;
38312;SDS011;24114;52.260;6.714;2023-12-07T04:26:10;88.45;;;22.65;;
38312;SDS011;24114;52.260;6.714;2023-12-07T04:28:37;57.85;;;19.85;;
38312;SDS011;24114;52.260;6.714;2023-12-07T04:31:05;40.15;;;19.40;;
38312;SDS011;24114;52.260;6.714;2023-12-07T04:33:33;39.90;;;19.67;;
38312;SDS011;24114;52.260;6.714;2023-12-07T04:36:01;43.67;;;19.48;;
38312;SDS011;24114;52.260;6.714;2023-12-07T04:38:30;35.60;;;17.83;;
38312;SDS011;24114;52.260;6.714;2023-12-07T04:40:59;29.88;;;15.75;;
38312;SDS011;24114;52.260;6.714;2023-12-07T04:43:28;30.25;;;16.15;;
38312;SDS011;24114;52.260;6.714;2023-12-07T04:45:56;29.35;;;15.77;;
38312;SDS011;24114;52.260;6.714;2023-12-07T04:48:24;35.55;;;16.90;;
38312;SDS011;24114;52.260;6.714;2023-12-07T04:50:52;33.88;;;16.83;;
38312;SDS011;24114;52.260;6.714;2023-12-07T04:53:19;22.70;;;14.70;;
38312;SDS011;24114;52.260;6.714;2023-12-07T04:55:47;21.77;;;14.85;;
38312;SDS011;24114;52.260;6.714;2023-12-07T04:58:16;26.27;;;15.23;;
38312;SDS011;24114;52.260;6.714;2023-12-07T05:00:45;26.58;;;15.13;;
38312;SDS011;24114;52.260;6.714;2023-12-07T05:03:14;24.77;;;14.52;;
38312;SDS011;24114;52.260;6.714;2023-12-07T05:05:41;31.93;;;15.23;;
38312;SDS011;24114;52.260;6.714;2023-12-07T05:08:09;22.23;;;14.20;;
38312;SDS011;24114;52.260;6.714;2023-12-07T05:10:37;27.80;;;15.45;;
38312;SDS011;24114;52.260;6.714;2023-12-07T05:13:05;22.20;;;15.23;;
38312;SDS011;24114;52.260;6.714;2023-12-07T05:15:33;21.30;;;15.05;;
38312;SDS011;24114;52.260;6.714;2023-12-07T05:18:02;23.05;;;15.07;;
38312;SDS011;24114;52.260;6.714;2023-12-07T05:20:31;23.48;;;15.50;;
38312;SDS011;24114;52.260;6.714;2023-12-07T05:23:00;32.22;;;15.30;;
38312;SDS011;24114;52.260;6.714;2023-12-07T05:25:28;22.60;;;14.75;;
38312;SDS011;24114;52.260;6.714;2023-12-07T05:27:56;20.50;;;14.10;;
38312;SDS011;24114;52.260;6.714;2023-12-07T05:30:24;28.52;;;15.93;;
38312;SDS011;24114;52.260;6.714;2023-12-07T05:32:51;25.90;;;14.68;;
38312;SDS011;24114;52.260;6.714;2023-12-07T05:35:21;31.67;;;15.00;;
38312;SDS011;24114;52.260;6.714;2023-12-07T05:37:49;26.05;;;14.50;;
38312;SDS011;24114;52.260;6.714;2023-12-07T05:40:17;22.15;;;14.60;;
38312;SDS011;24114;52.260;6.714;2023-12-07T05:42:46;27.67;;;15.20;;
38312;SDS011;24114;52.260;6.714;2023-12-07T05:45:16;28.88;;;15.25;;
38312;SDS011;24114;52.260;6.714;2023-12-07T05:47:44;32.33;;;14.88;;
38312;SDS011;24114;52.260;6.714;2023-12-07T05:50:12;24.13;;;15.35;;
38312;SDS011;24114;52.260;6.714;2023-12-07T05:52:42;23.83;;;16.23;;
38312;SDS011;24114;52.260;6.714;2023-12-07T05:55:10;23.23;;;15.60;;
38312;SDS011;24114;52.260;6.714;2023-12-07T05:57:38;30.02;;;17.05;;
38312;SDS011;24114;52.260;6.714;2023-12-07T06:00:06;35.67;;;16.83;;
38312;SDS011;24114;52.260;6.714;2023-12-07T06:02:36;28.70;;;17.20;;
38312;SDS011;24114;52.260;6.714;2023-12-07T06:05:04;24.85;;;17.17;;
38312;SDS011;24114;52.260;6.714;2023-12-07T06:07:33;39.25;;;18.45;;
38312;SDS011;24114;52.260;6.714;2023-12-07T06:10:02;31.75;;;17.20;;
38312;SDS011;24114;52.260;6.714;2023-12-07T06:12:31;33.55;;;18.65;;
38312;SDS011;24114;52.260;6.714;2023-12-07T06:14:59;28.10;;;17.98;;
38312;SDS011;24114;52.260;6.714;2023-12-07T06:17:27;24.13;;;17.73;;
38312;SDS011;24114;52.260;6.714;2023-12-07T06:19:55;31.17;;;19.15;;
38312;SDS011;24114;52.260;6.714;2023-12-07T06:22:23;32.38;;;19.67;;
38312;SDS011;24114;52.260;6.714;2023-12-07T06:24:51;29.42;;;19.15;;
38312;SDS011;24114;52.260;6.714;2023-12-07T06:27:20;40.22;;;19.70;;
38312;SDS011;24114;52.260;6.714;2023-12-07T06:29:48;36.92;;;20.88;;
38312;SDS011;24114;52.260;6.714;2023-12-07T06:32:16;34.78;;;20.80;;
38312;SDS011;24114;52.260;6.714;2023-12-07T06:34:43;41.83;;;21.30;;
38312;SDS011;24114;52.260;6.714;2023-12-07T06:37:11;42.85;;;21.73;;
38312;SDS011;24114;52.260;6.714;2023-12-07T06:39:39;44.55;;;22.63;;
38312;SDS011;24114;52.260;6.714;2023-12-07T06:42:07;57.97;;;24.90;;
38312;SDS011;24114;52.260;6.714;2023-12-07T06:44:36;42.20;;;22.25;;
38312;SDS011;24114;52.260;6.714;2023-12-07T06:47:04;41.33;;;23.90;;
38312;SDS011;24114;52.260;6.714;2023-12-07T06:49:32;41.00;;;23.05;;
38312;SDS011;24114;52.260;6.714;2023-12-07T06:52:15;48.92;;;24.25;;
38312;SDS011;24114;52.260;6.714;2023-12-07T06:54:43;43.33;;;24.80;;
38312;SDS011;24114;52.260;6.714;2023-12-07T06:57:11;37.72;;;24.38;;
38312;SDS011;24114;52.260;6.714;2023-12-07T06:59:40;44.45;;;28.90;;
38312;SDS011;24114;52.260;6.714;2023-12-07T07:02:08;57.70;;;32.25;;
38312;SDS011;24114;52.260;6.714;2023-12-07T07:04:36;44.55;;;30.77;;
38312;SDS011;24114;52.260;6.714;2023-12-07T07:07:04;79.45;;;34.70;;
38312;SDS011;24114;52.260;6.714;2023-12-07T07:09:32;57.83;;;31.60;;
38312;SDS011;24114;52.260;6.714;2023-12-07T07:12:00;55.47;;;30.25;;
38312;SDS011;24114;52.260;6.714;2023-12-07T07:14:28;82.20;;;50.45;;
38312;SDS011;24114;52.260;6.714;2023-12-07T07:16:57;57.58;;;35.50;;
38312;SDS011;24114;52.260;6.714;2023-12-07T07:19:24;68.77;;;41.77;;
38312;SDS011;24114;52.260;6.714;2023-12-07T07:21:52;64.30;;;38.80;;
38312;SDS011;24114;52.260;6.714;2023-12-07T07:24:20;51.23;;;32.60;;
38312;SDS011;24114;52.260;6.714;2023-12-07T07:26:48;59.08;;;34.83;;
38312;SDS011;24114;52.260;6.714;2023-12-07T07:29:16;62.95;;;33.33;;
38312;SDS011;24114;52.260;6.714;2023-12-07T07:31:44;71.07;;;46.60;;
38312;SDS011;24114;52.260;6.714;2023-12-07T07:34:13;78.30;;;38.83;;
38312;SDS011;24114;52.260;6.714;2023-12-07T07:36:41;44.10;;;30.23;;
38312;SDS011;24114;52.260;6.714;2023-12-07T07:39:09;69.18;;;37.88;;
38312;SDS011;24114;52.260;6.714;2023-12-07T07:41:39;56.78;;;33.53;;
38312;SDS011;24114;52.260;6.714;2023-12-07T07:44:07;62.70;;;28.73;;
38312;SDS011;24114;52.260;6.714;2023-12-07T07:46:35;59.95;;;34.72;;
38312;SDS011;24114;52.260;6.714;2023-12-07T07:49:03;64.57;;;34.85;;
38312;SDS011;24114;52.260;6.714;2023-12-07T07:51:32;53.92;;;31.15;;
38312;SDS011;24114;52.260;6.714;2023-12-07T07:54:00;52.08;;;30.92;;
38312;SDS011;24114;52.260;6.714;2023-12-07T07:56:28;52.25;;;29.40;;
38312;SDS011;24114;52.260;6.714;2023-12-07T07:58:56;58.50;;;30.98;;
38312;SDS011;24114;52.260;6.714;2023-12-07T08:01:26;50.47;;;30.20;;
38312;SDS011;24114;52.260;6.714;2023-12-07T08:03:54;67.07;;;31.93;;
38312;SDS011;24114;52.260;6.714;2023-12-07T08:06:21;52.67;;;31.52;;
38312;SDS011;24114;52.260;6.714;2023-12-07T08:08:51;51.58;;;31.77;;
38312;SDS011;24114;52.260;6.714;2023-12-07T08:11:18;74.05;;;33.28;;
38312;SDS011;24114;52.260;6.714;2023-12-07T08:13:46;59.58;;;31.42;;
38312;SDS011;24114;52.260;6.714;2023-12-07T08:16:14;67.40;;;31.52;;
38312;SDS011;24114;52.260;6.714;2023-12-07T08:18:42;73.97;;;32.50;;
38312;SDS011;24114;52.260;6.714;2023-12-07T08:21:17;57.55;;;31.23;;
38312;SDS011;24114;52.260;6.714;2023-12-07T08:23:52;53.87;;;31.00;;
38312;SDS011;24114;52.260;6.714;2023-12-07T08:26:20;70.07;;;33.88;;
38312;SDS011;24114;52.260;6.714;2023-12-07T08:28:48;62.80;;;32.78;;
38312;SDS011;24114;52.260;6.714;2023-12-07T08:31:20;55.03;;;30.57;;
38312;SDS011;24114;52.260;6.714;2023-12-07T08:33:50;83.18;;;33.05;;
38312;SDS011;24114;52.260;6.714;2023-12-07T08:36:18;61.20;;;30.92;;
38312;SDS011;24114;52.260;6.714;2023-12-07T08:38:47;56.38;;;30.35;;
38312;SDS011;24114;52.260;6.714;2023-12-07T08:41:17;67.30;;;31.45;;
38312;SDS011;24114;52.260;6.714;2023-12-07T08:43:44;60.63;;;30.85;;
38312;SDS011;24114;52.260;6.714;2023-12-07T08:46:12;53.88;;;29.65;;
38312;SDS011;24114;52.260;6.714;2023-12-07T08:48:40;75.55;;;31.35;;
38312;SDS011;24114;52.260;6.714;2023-12-07T08:51:09;123.35;;;36.67;;
38312;SDS011;24114;52.260;6.714;2023-12-07T08:53:37;78.60;;;32.83;;
38312;SDS011;24114;52.260;6.714;2023-12-07T08:56:05;100.10;;;34.47;;
38312;SDS011;24114;52.260;6.714;2023-12-07T08:58:35;108.50;;;35.65;;
38312;SDS011;24114;52.260;6.714;2023-12-07T09:01:03;79.07;;;33.55;;
38312;SDS011;24114;52.260;6.714;2023-12-07T09:03:35;85.32;;;33.83;;
38312;SDS011;24114;52.260;6.714;2023-12-07T09:06:04;91.78;;;35.25;;
38312;SDS011;24114;52.260;6.714;2023-12-07T09:08:33;77.28;;;33.60;;
38312;SDS011;24114;52.260;6.714;2023-12-07T09:11:01;80.90;;;33.05;;
38312;SDS011;24114;52.260;6.714;2023-12-07T09:13:30;85.88;;;35.15;;
38312;SDS011;24114;52.260;6.714;2023-12-07T09:15:59;91.82;;;35.08;;
38312;SDS011;24114;52.260;6.714;2023-12-07T09:18:27;107.55;;;36.28;;
38312;SDS011;24114;52.260;6.714;2023-12-07T09:20:55;96.95;;;35.90;;
38312;SDS011;24114;52.260;6.714;2023-12-07T09:23:23;78.40;;;35.78;;
38312;SDS011;24114;52.260;6.714;2023-12-07T09:25:51;127.93;;;37.78;;
38312;SDS011;24114;52.260;6.714;2023-12-07T09:28:19;100.47;;;36.00;;
38312;SDS011;24114;52.260;6.714;2023-12-07T09:30:47;77.57;;;34.33;;
38312;SDS011;24114;52.260;6.714;2023-12-07T09:33:17;76.65;;;33.17;;
38312;SDS011;24114;52.260;6.714;2023-12-07T09:35:47;75.43;;;35.00;;
38312;SDS011;24114;52.260;6.714;2023-12-07T09:38:15;85.03;;;36.13;;
38312;SDS011;24114;52.260;6.714;2023-12-07T09:40:43;107.75;;;37.75;;
38312;SDS011;24114;52.260;6.714;2023-12-07T09:43:12;75.73;;;35.20;;
38312;SDS011;24114;52.260;6.714;2023-12-07T09:45:40;121.67;;;38.53;;
38312;SDS011;24114;52.260;6.714;2023-12-07T09:48:07;98.88;;;36.28;;
38312;SDS011;24114;52.260;6.714;2023-12-07T09:50:37;111.05;;;37.38;;
38312;SDS011;24114;52.260;6.714;2023-12-07T09:53:05;120.97;;;37.90;;
38312;SDS011;24114;52.260;6.714;2023-12-07T09:55:35;80.57;;;33.63;;
38312;SDS011;24114;52.260;6.714;2023-12-07T09:58:04;103.15;;;34.80;;
38312;SDS011;24114;52.260;6.714;2023-12-07T10:00:34;96.07;;;35.50;;
38312;SDS011;24114;52.260;6.714;2023-12-07T10:03:03;99.60;;;35.33;;
38312;SDS011;24114;52.260;6.714;2023-12-07T10:05:34;107.97;;;36.50;;
38312;SDS011;24114;52.260;6.714;2023-12-07T10:08:03;114.43;;;36.00;;
38312;SDS011;24114;52.260;6.714;2023-12-07T10:10:35;120.45;;;37.10;;
38312;SDS011;24114;52.260;6.714;2023-12-07T10:13:03;102.65;;;34.53;;
38312;SDS011;24114;52.260;6.714;2023-12-07T10:15:31;97.35;;;32.75;;
38312;SDS011;24114;52.260;6.714;2023-12-07T10:17:59;113.13;;;35.85;;
38312;SDS011;24114;52.260;6.714;2023-12-07T10:20:28;97.20;;;34.38;;
38312;SDS011;24114;52.260;6.714;2023-12-07T10:23:04;97.72;;;34.42;;
38312;SDS011;24114;52.260;6.714;2023-12-07T10:25:35;90.43;;;33.28;;
38312;SDS011;24114;52.260;6.714;2023-12-07T10:28:04;97.70;;;33.13;;
38312;SDS011;24114;52.260;6.714;2023-12-07T10:30:34;87.07;;;32.17;;
38312;SDS011;24114;52.260;6.714;2023-12-07T10:33:02;85.60;;;31.08;;
38312;SDS011;24114;52.260;6.714;2023-12-07T10:35:30;92.67;;;32.97;;
38312;SDS011;24114;52.260;6.714;2023-12-07T10:37:58;91.23;;;33.33;;
38312;SDS011;24114;52.260;6.714;2023-12-07T10:40:28;121.32;;;36.58;;
38312;SDS011;24114;52.260;6.714;2023-12-07T10:42:57;127.88;;;36.22;;
38312;SDS011;24114;52.260;6.714;2023-12-07T10:45:28;101.93;;;33.22;;
38312;SDS011;24114;52.260;6.714;2023-12-07T10:47:57;122.05;;;36.72;;
38312;SDS011;24114;52.260;6.714;2023-12-07T10:50:32;143.57;;;37.83;;
38312;SDS011;24114;52.260;6.714;2023-12-07T10:53:04;106.75;;;34.88;;
38312;SDS011;24114;52.260;6.714;2023-12-07T10:55:37;108.75;;;36.17;;
38312;SDS011;24114;52.260;6.714;2023-12-07T10:58:09;127.97;;;37.55;;
38312;SDS011;24114;52.260;6.714;2023-12-07T11:00:40;119.40;;;36.90;;
38312;SDS011;24114;52.260;6.714;2023-12-07T11:03:14;121.05;;;38.83;;
38312;SDS011;24114;52.260;6.714;2023-12-07T11:05:45;112.60;;;36.72;;
38312;SDS011;24114;52.260;6.714;2023-12-07T11:08:15;120.97;;;38.50;;
38312;SDS011;24114;52.260;6.714;2023-12-07T11:10:50;106.18;;;37.13;;
38312;SDS011;24114;52.260;6.714;2023-12-07T11:13:22;107.50;;;37.05;;
38312;SDS011;24114;52.260;6.714;2023-12-07T11:15:52;97.10;;;36.00;;
38312;SDS011;24114;52.260;6.714;2023-12-07T11:18:20;94.32;;;34.55;;
38312;SDS011;24114;52.260;6.714;2023-12-07T11:20:48;101.00;;;35.10;;
38312;SDS011;24114;52.260;6.714;2023-12-07T11:23:16;101.65;;;34.78;;
38312;SDS011;24114;52.260;6.714;2023-12-07T11:25:45;91.57;;;34.45;;
38312;SDS011;24114;52.260;6.714;2023-12-07T11:28:15;91.72;;;34.97;;
38312;SDS011;24114;52.260;6.714;2023-12-07T11:30:45;91.63;;;33.65;;
38312;SDS011;24114;52.260;6.714;2023-12-07T11:33:14;86.35;;;33.65;;
38312;SDS011;24114;52.260;6.714;2023-12-07T11:36:02;90.70;;;33.70;;
38312;SDS011;24114;52.260;6.714;2023-12-07T11:38:31;91.35;;;33.20;;
38312;SDS011;24114;52.260;6.714;2023-12-07T11:40:59;82.20;;;32.58;;
38312;SDS011;24114;52.260;6.714;2023-12-07T11:43:32;77.70;;;31.77;;
38312;SDS011;24114;52.260;6.714;2023-12-07T11:46:04;71.82;;;31.77;;
38312;SDS011;24114;52.260;6.714;2023-12-07T11:48:32;76.70;;;32.42;;
38312;SDS011;24114;52.260;6.714;2023-12-07T11:51:01;73.07;;;32.55;;
38312;SDS011;24114;52.260;6.714;2023-12-07T11:53:30;70.15;;;30.50;;
38312;SDS011;24114;52.260;6.714;2023-12-07T11:55:58;76.30;;;32.35;;
38312;SDS011;24114;52.260;6.714;2023-12-07T11:58:28;75.85;;;32.10;;
38312;SDS011;24114;52.260;6.714;2023-12-07T12:01:00;75.65;;;32.67;;
38312;SDS011;24114;52.260;6.714;2023-12-07T12:03:28;72.72;;;33.00;;
38312;SDS011;24114;52.260;6.714;2023-12-07T12:05:57;71.10;;;32.17;;
38312;SDS011;24114;52.260;6.714;2023-12-07T12:08:25;74.57;;;32.67;;
38312;SDS011;24114;52.260;6.714;2023-12-07T12:10:53;70.13;;;32.20;;
38312;SDS011;24114;52.260;6.714;2023-12-07T12:13:25;81.68;;;34.03;;
38312;SDS011;24114;52.260;6.714;2023-12-07T12:15:56;80.95;;;36.05;;
38312;SDS011;24114;52.260;6.714;2023-12-07T12:18:30;86.78;;;36.20;;
38312;SDS011;24114;52.260;6.714;2023-12-07T12:20:59;86.97;;;36.43;;
38312;SDS011;24114;52.260;6.714;2023-12-07T12:23:28;86.95;;;36.00;;
38312;SDS011;24114;52.260;6.714;2023-12-07T12:25:56;88.20;;;36.05;;
38312;SDS011;24114;52.260;6.714;2023-12-07T12:28:24;91.78;;;37.83;;
38312;SDS011;24114;52.260;6.714;2023-12-07T12:30:52;99.18;;;40.10;;
38312;SDS011;24114;52.260;6.714;2023-12-07T12:33:21;116.57;;;41.63;;
38312;SDS011;24114;52.260;6.714;2023-12-07T12:36:00;113.68;;;39.08;;
38312;SDS011;24114;52.260;6.714;2023-12-07T12:38:29;100.53;;;37.83;;
38312;SDS011;24114;52.260;6.714;2023-12-07T12:41:08;107.88;;;39.17;;
38312;SDS011;24114;52.260;6.714;2023-12-07T12:43:36;99.25;;;36.40;;
38312;SDS011;24114;52.260;6.714;2023-12-07T12:46:04;97.50;;;36.20;;
38312;SDS011;24114;52.260;6.714;2023-12-07T12:48:32;84.55;;;33.42;;
38312;SDS011;24114;52.260;6.714;2023-12-07T12:51:08;89.03;;;35.47;;
38312;SDS011;24114;52.260;6.714;2023-12-07T12:53:40;88.97;;;36.00;;
38312;SDS011;24114;52.260;6.714;2023-12-07T12:56:11;81.57;;;33.55;;
38312;SDS011;24114;52.260;6.714;2023-12-07T12:58:39;89.13;;;35.57;;
38312;SDS011;24114;52.260;6.714;2023-12-07T13:01:07;86.60;;;34.70;;
38312;SDS011;24114;52.260;6.714;2023-12-07T13:03:35;81.32;;;35.28;;
38312;SDS011;24114;52.260;6.714;2023-12-07T13:06:03;76.82;;;33.42;;
38312;SDS011;24114;52.260;6.714;2023-12-07T13:08:33;78.43;;;34.05;;
38312;SDS011;24114;52.260;6.714;2023-12-07T13:11:01;80.35;;;33.67;;
38312;SDS011;24114;52.260;6.714;2023-12-07T13:13:29;72.47;;;33.00;;
38312;SDS011;24114;52.260;6.714;2023-12-07T13:15:57;79.38;;;35.58;;
38312;SDS011;24114;52.260;6.714;2023-12-07T13:18:25;73.22;;;33.55;;
38312;SDS011;24114;52.260;6.714;2023-12-07T13:20:53;76.10;;;34.05;;
38312;SDS011;24114;52.260;6.714;2023-12-07T13:23:22;76.45;;;34.15;;
38312;SDS011;24114;52.260;6.714;2023-12-07T13:25:51;71.57;;;33.15;;
38312;SDS011;24114;52.260;6.714;2023-12-07T13:28:19;75.07;;;35.03;;
38312;SDS011;24114;52.260;6.714;2023-12-07T13:30:47;72.87;;;33.73;;
38312;SDS011;24114;52.260;6.714;2023-12-07T13:33:14;65.65;;;33.00;;
38312;SDS011;24114;52.260;6.714;2023-12-07T13:35:53;72.57;;;35.00;;
38312;SDS011;24114;52.260;6.714;2023-12-07T13:38:22;65.53;;;33.95;;
38312;SDS011;24114;52.260;6.714;2023-12-07T13:40:51;66.03;;;33.38;;
38312;SDS011;24114;52.260;6.714;2023-12-07T13:43:19;63.90;;;34.38;;
38312;SDS011;24114;52.260;6.714;2023-12-07T13:45:50;63.30;;;34.25;;
38312;SDS011;24114;52.260;6.714;2023-12-07T13:48:18;64.05;;;34.33;;
38312;SDS011;24114;52.260;6.714;2023-12-07T13:50:46;65.30;;;33.15;;
38312;SDS011;24114;52.260;6.714;2023-12-07T13:53:14;63.40;;;33.13;;
38312;SDS011;24114;52.260;6.714;2023-12-07T13:55:42;63.72;;;34.47;;
38312;SDS011;24114;52.260;6.714;2023-12-07T13:58:11;63.60;;;34.05;;
38312;SDS011;24114;52.260;6.714;2023-12-07T14:00:39;66.25;;;36.22;;
38312;SDS011;24114;52.260;6.714;2023-12-07T14:03:11;66.32;;;36.72;;
38312;SDS011;24114;52.260;6.714;2023-12-07T14:05:39;64.63;;;34.80;;
38312;SDS011;24114;52.260;6.714;2023-12-07T14:08:07;64.70;;;34.38;;
38312;SDS011;24114;52.260;6.714;2023-12-07T14:10:35;67.45;;;36.80;;
38312;SDS011;24114;52.260;6.714;2023-12-07T14:13:03;67.95;;;35.63;;
38312;SDS011;24114;52.260;6.714;2023-12-07T14:15:35;65.93;;;34.17;;
38312;SDS011;24114;52.260;6.714;2023-12-07T14:18:10;64.15;;;34.33;;
38312;SDS011;24114;52.260;6.714;2023-12-07T14:20:40;68.97;;;35.33;;
38312;SDS011;24114;52.260;6.714;2023-12-07T14:23:28;64.43;;;34.83;;
38312;SDS011;24114;52.260;6.714;2023-12-07T14:25:56;63.67;;;34.57;;
38312;SDS011;24114;52.260;6.714;2023-12-07T14:28:29;63.08;;;34.72;;
38312;SDS011;24114;52.260;6.714;2023-12-07T14:31:01;70.53;;;35.83;;